NSZ3210 EKCH-ESSA
Flight info
| Callsign | NSZ3210 |
|---|---|
| Flight time | 1h 6m |
| Altitude | 37000 |
| Route | KEMAX N851 ROXEN DCT MIKNA N851 PELUP Z226 NILUG |
| Aircraft | B38M/M-SDE1FGHILORVWXY/HB1 |
Departure
| Time | 2026-04-21 17:23 |
|---|---|
| Airport | Copenhagen Kastrup Airport (EKCH) |
Arrival
| Time | 2026-04-21 18:29 |
|---|---|
| Airport | Stockholm-Arlanda Airport (ESSA) |
| Time | Latitude | Longitude | Altitude | Speed | Heading |
|---|---|---|---|---|---|
| 2026-04-21 16:39 | 55.62695 | 12.65391 | 19 ft | 0 kts | 26° |
| 2026-04-21 17:03 | 55.62681 | 12.65377 | 19 ft | 4 kts | 27° |
| 2026-04-21 17:03 | 55.62657 | 12.65356 | 24 ft | 4 kts | 25° |
| 2026-04-21 17:04 | 55.62632 | 12.65338 | 23 ft | 4 kts | 19° |
| 2026-04-21 17:04 | 55.62606 | 12.65325 | 21 ft | 4 kts | 8° |
| 2026-04-21 17:04 | 55.62586 | 12.65323 | 21 ft | 1 kts | 358° |
| 2026-04-21 17:04 | 55.62582 | 12.65323 | 21 ft | 0 kts | 358° |
| 2026-04-21 17:07 | 55.62585 | 12.65323 | 21 ft | 1 kts | 358° |
| 2026-04-21 17:07 | 55.62592 | 12.65318 | 22 ft | 2 kts | 348° |
| 2026-04-21 17:08 | 55.62649 | 12.65269 | 19 ft | 13 kts | 286° |
| 2026-04-21 17:08 | 55.62629 | 12.65209 | 19 ft | 5 kts | 199° |
| 2026-04-21 17:08 | 55.62577 | 12.65196 | 19 ft | 11 kts | 183° |
| 2026-04-21 17:08 | 55.62486 | 12.65198 | 19 ft | 14 kts | 176° |
| 2026-04-21 17:09 | 55.62260 | 12.65199 | 20 ft | 18 kts | 180° |
| 2026-04-21 17:09 | 55.62181 | 12.65134 | 20 ft | 5 kts | 250° |
| 2026-04-21 17:09 | 55.62187 | 12.65081 | 22 ft | 7 kts | 291° |
| 2026-04-21 17:10 | 55.62233 | 12.64949 | 20 ft | 14 kts | 304° |
| 2026-04-21 17:10 | 55.62229 | 12.64799 | 20 ft | 14 kts | 220° |
| 2026-04-21 17:10 | 55.62136 | 12.64688 | 21 ft | 20 kts | 213° |
| 2026-04-21 17:10 | 55.62011 | 12.64544 | 19 ft | 13 kts | 211° |
| 2026-04-21 17:11 | 55.61963 | 12.64511 | 19 ft | 8 kts | 192° |
| 2026-04-21 17:11 | 55.61855 | 12.64523 | 22 ft | 23 kts | 171° |
| 2026-04-21 17:11 | 55.61690 | 12.64570 | 22 ft | 19 kts | 183° |
| 2026-04-21 17:11 | 55.61592 | 12.64472 | 20 ft | 17 kts | 213° |
| 2026-04-21 17:12 | 55.61486 | 12.64349 | 20 ft | 19 kts | 212° |
| 2026-04-21 17:12 | 55.61367 | 12.64213 | 19 ft | 21 kts | 213° |
| 2026-04-21 17:12 | 55.61237 | 12.64065 | 19 ft | 23 kts | 213° |
| 2026-04-21 17:12 | 55.61097 | 12.63902 | 20 ft | 25 kts | 213° |
| 2026-04-21 17:13 | 55.60947 | 12.63729 | 19 ft | 27 kts | 213° |
| 2026-04-21 17:13 | 55.60787 | 12.63545 | 19 ft | 28 kts | 213° |
| 2026-04-21 17:13 | 55.60625 | 12.63345 | 21 ft | 26 kts | 219° |
| 2026-04-21 17:13 | 55.60541 | 12.63224 | 19 ft | 9 kts | 211° |
| 2026-04-21 17:14 | 55.60479 | 12.63235 | 20 ft | 9 kts | 135° |
| 2026-04-21 17:14 | 55.60476 | 12.63242 | 19 ft | 0 kts | 130° |
| 2026-04-21 17:15 | 55.60473 | 12.63247 | 19 ft | 2 kts | 132° |
| 2026-04-21 17:16 | 55.60446 | 12.63301 | 19 ft | 16 kts | 131° |
| 2026-04-21 17:16 | 55.60443 | 12.63512 | 20 ft | 22 kts | 43° |
| 2026-04-21 17:16 | 55.60600 | 12.63755 | 20 ft | 40 kts | 40° |
| 2026-04-21 17:16 | 55.60845 | 12.64138 | 21 ft | 51 kts | 40° |
| 2026-04-21 17:17 | 55.61121 | 12.64559 | 19 ft | 49 kts | 41° |
| 2026-04-21 17:17 | 55.61191 | 12.64710 | 20 ft | 0 kts | 97° |
| 2026-04-21 17:17 | 55.61191 | 12.64713 | 20 ft | 1 kts | 85° |
| 2026-04-21 17:17 | 55.61248 | 12.64755 | 25 ft | 23 kts | 351° |
| 2026-04-21 17:18 | 55.61439 | 12.64656 | 19 ft | 32 kts | 348° |
| 2026-04-21 17:18 | 55.61655 | 12.64585 | 20 ft | 19 kts | 349° |
| 2026-04-21 17:18 | 55.61760 | 12.64667 | 19 ft | 18 kts | 33° |
| 2026-04-21 17:18 | 55.61876 | 12.64800 | 19 ft | 21 kts | 33° |
| 2026-04-21 17:19 | 55.61932 | 12.64864 | 21 ft | 0 kts | 33° |
| 2026-04-21 17:19 | 55.61938 | 12.64871 | 20 ft | 2 kts | 33° |
| 2026-04-21 17:19 | 55.61964 | 12.64900 | 20 ft | 10 kts | 32° |
| 2026-04-21 17:20 | 55.62046 | 12.64909 | 21 ft | 16 kts | 311° |
| 2026-04-21 17:20 | 55.62109 | 12.64684 | 20 ft | 9 kts | 256° |
| 2026-04-21 17:20 | 55.62050 | 12.64593 | 21 ft | 14 kts | 215° |
| 2026-04-21 17:20 | 55.61967 | 12.64472 | 19 ft | 16 kts | 236° |
| 2026-04-21 17:21 | 55.61938 | 12.64267 | 19 ft | 18 kts | 259° |
| 2026-04-21 17:21 | 55.61875 | 12.64081 | 20 ft | 19 kts | 200° |
| 2026-04-21 17:21 | 55.61742 | 12.64082 | 21 ft | 20 kts | 177° |
| 2026-04-21 17:21 | 55.61612 | 12.64053 | 24 ft | 20 kts | 218° |
| 2026-04-21 17:22 | 55.61449 | 12.63804 | 21 ft | 55 kts | 221° |
| 2026-04-21 17:22 | 55.61008 | 12.63118 | 22 ft | 112 kts | 221° |
| 2026-04-21 17:22 | 55.60308 | 12.62028 | 23 ft | 154 kts | 221° |
| 2026-04-21 17:22 | 55.59484 | 12.60717 | 388 ft | 163 kts | 221° |
| 2026-04-21 17:23 | 55.58598 | 12.59338 | 764 ft | 182 kts | 220° |
| 2026-04-21 17:23 | 55.57574 | 12.57780 | 1094 ft | 205 kts | 222° |
| 2026-04-21 17:23 | 55.56467 | 12.56156 | 1838 ft | 206 kts | 217° |
| 2026-04-21 17:23 | 55.55170 | 12.54919 | 2828 ft | 217 kts | 201° |
| 2026-04-21 17:24 | 55.53693 | 12.54052 | 3792 ft | 229 kts | 197° |
| 2026-04-21 17:24 | 55.52106 | 12.53168 | 4637 ft | 246 kts | 197° |
| 2026-04-21 17:24 | 55.50429 | 12.52228 | 5653 ft | 256 kts | 196° |
| 2026-04-21 17:24 | 55.48688 | 12.51243 | 6620 ft | 270 kts | 197° |
| 2026-04-21 17:25 | 55.46849 | 12.50147 | 6733 ft | 283 kts | 197° |
| 2026-04-21 17:25 | 55.44959 | 12.49629 | 7369 ft | 278 kts | 169° |
| 2026-04-21 17:25 | 55.43184 | 12.50942 | 8233 ft | 282 kts | 142° |
| 2026-04-21 17:25 | 55.41707 | 12.53203 | 9276 ft | 284 kts | 126° |
| 2026-04-21 17:26 | 55.40866 | 12.56317 | 10161 ft | 286 kts | 99° |
| 2026-04-21 17:26 | 55.40884 | 12.59811 | 11067 ft | 289 kts | 76° |
| 2026-04-21 17:26 | 55.41610 | 12.63160 | 11807 ft | 300 kts | 62° |
| 2026-04-21 17:26 | 55.42644 | 12.66422 | 12621 ft | 308 kts | 60° |
| 2026-04-21 17:27 | 55.43765 | 12.69643 | 13612 ft | 311 kts | 53° |
| 2026-04-21 17:27 | 55.45384 | 12.72198 | 14493 ft | 317 kts | 32° |
| 2026-04-21 17:27 | 55.47464 | 12.73598 | 15310 ft | 325 kts | 16° |
| 2026-04-21 17:27 | 55.49674 | 12.74530 | 16104 ft | 329 kts | 17° |
| 2026-04-21 17:28 | 55.51916 | 12.75460 | 16913 ft | 332 kts | 17° |
| 2026-04-21 17:28 | 55.54183 | 12.76380 | 17701 ft | 336 kts | 16° |
| 2026-04-21 17:28 | 55.56476 | 12.77297 | 18443 ft | 340 kts | 16° |
| 2026-04-21 17:28 | 55.58787 | 12.78216 | 19119 ft | 343 kts | 16° |
| 2026-04-21 17:29 | 55.61121 | 12.79141 | 19796 ft | 345 kts | 17° |
| 2026-04-21 17:29 | 55.63469 | 12.80075 | 20462 ft | 347 kts | 18° |
| 2026-04-21 17:29 | 55.65665 | 12.81714 | 21133 ft | 340 kts | 37° |
| 2026-04-21 17:29 | 55.67560 | 12.84149 | 21716 ft | 343 kts | 38° |
| 2026-04-21 17:30 | 55.69493 | 12.86658 | 22362 ft | 345 kts | 39° |
| 2026-04-21 17:30 | 55.71449 | 12.89237 | 23028 ft | 347 kts | 39° |
| 2026-04-21 17:30 | 55.73387 | 12.91821 | 23646 ft | 349 kts | 40° |
| 2026-04-21 17:30 | 55.75330 | 12.94429 | 24220 ft | 352 kts | 40° |
| 2026-04-21 17:31 | 55.77286 | 12.97064 | 24724 ft | 354 kts | 40° |
| 2026-04-21 17:31 | 55.79225 | 12.99685 | 25208 ft | 356 kts | 40° |
| 2026-04-21 17:31 | 55.81228 | 13.02394 | 25690 ft | 359 kts | 39° |
| 2026-04-21 17:31 | 55.83221 | 13.05095 | 26165 ft | 361 kts | 39° |
| 2026-04-21 17:32 | 55.85225 | 13.07814 | 26720 ft | 362 kts | 39° |
| 2026-04-21 17:32 | 55.87197 | 13.10496 | 27232 ft | 363 kts | 40° |
| 2026-04-21 17:32 | 55.89241 | 13.13277 | 27618 ft | 367 kts | 39° |
| 2026-04-21 17:32 | 55.91275 | 13.16047 | 28062 ft | 369 kts | 39° |
| 2026-04-21 17:33 | 55.93320 | 13.18838 | 28495 ft | 371 kts | 39° |
| 2026-04-21 17:33 | 55.95377 | 13.21650 | 28927 ft | 374 kts | 39° |
| 2026-04-21 17:33 | 55.97448 | 13.24483 | 29341 ft | 376 kts | 39° |
| 2026-04-21 17:33 | 55.99512 | 13.27364 | 29723 ft | 375 kts | 55° |
| 2026-04-21 17:34 | 56.00759 | 13.31377 | 28402 ft | 392 kts | 71° |
| 2026-04-21 17:34 | 56.01233 | 13.36268 | 28164 ft | 389 kts | 78° |
| 2026-04-21 17:34 | 56.01895 | 13.40762 | 28329 ft | 365 kts | 66° |
| 2026-04-21 17:34 | 56.02954 | 13.44812 | 28085 ft | 354 kts | 59° |
| 2026-04-21 17:35 | 56.04424 | 13.48262 | 27806 ft | 346 kts | 46° |
| 2026-04-21 17:35 | 56.06263 | 13.50968 | 27542 ft | 339 kts | 38° |
| 2026-04-21 17:35 | 56.08114 | 13.53493 | 27304 ft | 330 kts | 40° |
| 2026-04-21 17:35 | 56.09900 | 13.56000 | 27048 ft | 323 kts | 40° |
| 2026-04-21 17:36 | 56.11643 | 13.58469 | 26822 ft | 316 kts | 40° |
| 2026-04-21 17:36 | 56.13343 | 13.60899 | 26587 ft | 310 kts | 40° |
| 2026-04-21 17:36 | 56.15068 | 13.63391 | 26446 ft | 328 kts | 40° |
| 2026-04-21 17:36 | 56.16885 | 13.66030 | 26415 ft | 345 kts | 40° |
| 2026-04-21 17:37 | 56.18789 | 13.68802 | 26463 ft | 359 kts | 40° |
| 2026-04-21 17:37 | 56.20748 | 13.71654 | 26755 ft | 365 kts | 40° |
| 2026-04-21 17:37 | 56.22723 | 13.74522 | 27289 ft | 366 kts | 40° |
| 2026-04-21 17:37 | 56.24709 | 13.77411 | 27709 ft | 369 kts | 40° |
| 2026-04-21 17:38 | 56.26708 | 13.80322 | 28185 ft | 371 kts | 40° |
| 2026-04-21 17:38 | 56.28719 | 13.83255 | 28603 ft | 373 kts | 40° |
| 2026-04-21 17:38 | 56.30744 | 13.86212 | 29028 ft | 376 kts | 40° |
| 2026-04-21 17:38 | 56.32784 | 13.89194 | 29448 ft | 378 kts | 40° |
| 2026-04-21 17:39 | 56.34829 | 13.92190 | 29903 ft | 380 kts | 39° |
| 2026-04-21 17:39 | 56.36887 | 13.95191 | 30332 ft | 381 kts | 39° |
| 2026-04-21 17:39 | 56.38949 | 13.98220 | 30676 ft | 383 kts | 40° |
| 2026-04-21 17:39 | 56.41022 | 14.01277 | 30976 ft | 387 kts | 39° |
| 2026-04-21 17:40 | 56.43111 | 14.04357 | 31288 ft | 389 kts | 39° |
| 2026-04-21 17:40 | 56.45214 | 14.07459 | 31597 ft | 392 kts | 39° |
| 2026-04-21 17:40 | 56.47331 | 14.10587 | 31899 ft | 394 kts | 39° |
| 2026-04-21 17:40 | 56.49458 | 14.13733 | 32193 ft | 397 kts | 39° |
| 2026-04-21 17:41 | 56.51603 | 14.16910 | 32486 ft | 399 kts | 40° |
| 2026-04-21 17:41 | 56.53756 | 14.20103 | 32768 ft | 402 kts | 40° |
| 2026-04-21 17:41 | 56.55922 | 14.23323 | 33076 ft | 404 kts | 40° |
| 2026-04-21 17:41 | 56.58097 | 14.26556 | 33450 ft | 404 kts | 39° |
| 2026-04-21 17:42 | 56.60270 | 14.29792 | 33820 ft | 404 kts | 39° |
| 2026-04-21 17:42 | 56.62443 | 14.33031 | 34218 ft | 404 kts | 39° |
| 2026-04-21 17:42 | 56.64612 | 14.36272 | 34547 ft | 404 kts | 39° |
| 2026-04-21 17:42 | 56.66782 | 14.39518 | 34817 ft | 405 kts | 39° |
| 2026-04-21 17:43 | 56.68959 | 14.42781 | 35081 ft | 406 kts | 39° |
| 2026-04-21 17:43 | 56.71145 | 14.46061 | 35351 ft | 407 kts | 39° |
| 2026-04-21 17:43 | 56.73331 | 14.49346 | 35623 ft | 408 kts | 39° |
| 2026-04-21 17:43 | 56.75494 | 14.52602 | 35878 ft | 410 kts | 39° |
| 2026-04-21 17:44 | 56.77689 | 14.55913 | 36130 ft | 411 kts | 39° |
| 2026-04-21 17:44 | 56.79895 | 14.59246 | 36375 ft | 412 kts | 39° |
| 2026-04-21 17:44 | 56.82102 | 14.62582 | 36605 ft | 413 kts | 39° |
| 2026-04-21 17:44 | 56.84314 | 14.65934 | 36866 ft | 414 kts | 39° |
| 2026-04-21 17:45 | 56.86530 | 14.69299 | 37093 ft | 415 kts | 39° |
| 2026-04-21 17:45 | 56.88760 | 14.72689 | 37282 ft | 417 kts | 39° |
| 2026-04-21 17:45 | 56.93210 | 14.79475 | 37282 ft | 415 kts | 39° |
| 2026-04-21 17:46 | 56.97646 | 14.86258 | 37305 ft | 415 kts | 39° |
| 2026-04-21 17:46 | 57.02067 | 14.93040 | 37289 ft | 414 kts | 39° |
| 2026-04-21 17:47 | 57.06481 | 14.99834 | 37290 ft | 415 kts | 39° |
| 2026-04-21 17:47 | 57.10913 | 15.06677 | 37288 ft | 415 kts | 39° |
| 2026-04-21 17:48 | 57.15307 | 15.13484 | 37290 ft | 415 kts | 39° |
| 2026-04-21 17:48 | 57.19724 | 15.20349 | 37290 ft | 415 kts | 39° |
| 2026-04-21 17:49 | 57.24137 | 15.27229 | 37287 ft | 415 kts | 40° |
| 2026-04-21 17:49 | 57.28540 | 15.34115 | 37280 ft | 416 kts | 39° |
| 2026-04-21 17:50 | 57.32196 | 15.39852 | 37288 ft | 416 kts | 39° |
| 2026-04-21 17:50 | 57.36079 | 15.45962 | 37282 ft | 416 kts | 39° |
| 2026-04-21 17:51 | 57.40485 | 15.52915 | 37284 ft | 416 kts | 39° |
| 2026-04-21 17:51 | 57.44890 | 15.59889 | 37283 ft | 416 kts | 40° |
| 2026-04-21 17:52 | 57.49288 | 15.66876 | 37285 ft | 416 kts | 40° |
| 2026-04-21 17:52 | 57.53687 | 15.73885 | 37282 ft | 417 kts | 40° |
| 2026-04-21 17:53 | 57.58092 | 15.80929 | 37277 ft | 417 kts | 40° |
| 2026-04-21 17:53 | 57.62493 | 15.87991 | 37292 ft | 417 kts | 40° |
| 2026-04-21 17:54 | 57.66137 | 15.93854 | 37277 ft | 416 kts | 40° |
| 2026-04-21 17:54 | 57.69329 | 15.99003 | 37274 ft | 416 kts | 40° |
| 2026-04-21 17:55 | 57.73706 | 16.06087 | 37274 ft | 416 kts | 40° |
| 2026-04-21 17:55 | 57.78068 | 16.13166 | 37269 ft | 408 kts | 40° |
| 2026-04-21 17:56 | 57.80174 | 16.16588 | 37129 ft | 396 kts | 40° |
| 2026-04-21 17:56 | 57.82239 | 16.19953 | 36638 ft | 392 kts | 40° |
| 2026-04-21 17:56 | 57.84298 | 16.23316 | 36082 ft | 391 kts | 40° |
| 2026-04-21 17:56 | 57.86344 | 16.26663 | 35551 ft | 389 kts | 40° |
| 2026-04-21 17:57 | 57.88375 | 16.29991 | 35067 ft | 386 kts | 40° |
| 2026-04-21 17:57 | 57.90393 | 16.33301 | 34595 ft | 384 kts | 40° |
| 2026-04-21 17:57 | 57.92394 | 16.36589 | 34085 ft | 379 kts | 39° |
| 2026-04-21 17:57 | 57.94366 | 16.39833 | 33537 ft | 374 kts | 39° |
| 2026-04-21 17:58 | 57.96287 | 16.42997 | 33072 ft | 368 kts | 39° |
| 2026-04-21 17:58 | 57.98198 | 16.46148 | 32622 ft | 362 kts | 39° |
| 2026-04-21 17:58 | 58.00072 | 16.49244 | 32199 ft | 356 kts | 39° |
| 2026-04-21 17:58 | 58.01941 | 16.52338 | 31787 ft | 350 kts | 39° |
| 2026-04-21 17:59 | 58.03760 | 16.55350 | 31371 ft | 344 kts | 39° |
| 2026-04-21 17:59 | 58.05543 | 16.58309 | 30973 ft | 339 kts | 39° |
| 2026-04-21 17:59 | 58.07301 | 16.61229 | 30574 ft | 334 kts | 39° |
| 2026-04-21 17:59 | 58.09007 | 16.64068 | 30182 ft | 329 kts | 39° |
| 2026-04-21 18:00 | 58.10717 | 16.66917 | 29763 ft | 325 kts | 39° |
| 2026-04-21 18:00 | 58.12403 | 16.69729 | 29380 ft | 321 kts | 39° |
| 2026-04-21 18:00 | 58.13528 | 16.71609 | 29147 ft | 318 kts | 39° |
| 2026-04-21 18:00 | 58.15702 | 16.75244 | 28692 ft | 312 kts | 39° |
| 2026-04-21 18:01 | 58.16801 | 16.77084 | 28455 ft | 313 kts | 39° |
| 2026-04-21 18:01 | 58.18987 | 16.80751 | 27996 ft | 320 kts | 39° |
| 2026-04-21 18:01 | 58.20113 | 16.82642 | 27761 ft | 322 kts | 39° |
| 2026-04-21 18:01 | 58.21788 | 16.85460 | 27409 ft | 322 kts | 38° |
| 2026-04-21 18:02 | 58.23462 | 16.88277 | 27063 ft | 321 kts | 38° |
| 2026-04-21 18:02 | 58.25130 | 16.91088 | 26721 ft | 320 kts | 38° |
| 2026-04-21 18:02 | 58.26783 | 16.93879 | 26394 ft | 316 kts | 38° |
| 2026-04-21 18:02 | 58.28418 | 16.96640 | 26043 ft | 313 kts | 38° |
| 2026-04-21 18:03 | 58.30039 | 16.99383 | 25715 ft | 310 kts | 38° |
| 2026-04-21 18:03 | 58.31638 | 17.02092 | 25385 ft | 307 kts | 38° |
| 2026-04-21 18:03 | 58.33223 | 17.04780 | 25062 ft | 303 kts | 38° |
| 2026-04-21 18:03 | 58.34788 | 17.07438 | 24754 ft | 300 kts | 38° |
| 2026-04-21 18:04 | 58.36338 | 17.10072 | 24434 ft | 297 kts | 38° |
| 2026-04-21 18:04 | 58.37870 | 17.12680 | 24124 ft | 294 kts | 38° |
| 2026-04-21 18:04 | 58.39385 | 17.15264 | 23818 ft | 291 kts | 38° |
| 2026-04-21 18:04 | 58.40886 | 17.17825 | 23462 ft | 288 kts | 38° |
| 2026-04-21 18:05 | 58.42374 | 17.20367 | 23146 ft | 289 kts | 38° |
| 2026-04-21 18:05 | 58.43883 | 17.22950 | 22836 ft | 294 kts | 38° |
| 2026-04-21 18:05 | 58.45398 | 17.25546 | 22529 ft | 298 kts | 38° |
| 2026-04-21 18:05 | 58.46938 | 17.28187 | 22218 ft | 298 kts | 38° |
| 2026-04-21 18:06 | 58.48480 | 17.30835 | 21912 ft | 298 kts | 38° |
| 2026-04-21 18:06 | 58.50018 | 17.33478 | 21605 ft | 297 kts | 38° |
| 2026-04-21 18:06 | 58.51549 | 17.36113 | 21295 ft | 296 kts | 39° |
| 2026-04-21 18:06 | 58.53075 | 17.38744 | 21000 ft | 295 kts | 39° |
| 2026-04-21 18:07 | 58.54596 | 17.41367 | 20682 ft | 294 kts | 39° |
| 2026-04-21 18:07 | 58.56111 | 17.43985 | 20381 ft | 293 kts | 39° |
| 2026-04-21 18:07 | 58.57623 | 17.46600 | 20070 ft | 292 kts | 39° |
| 2026-04-21 18:07 | 58.59129 | 17.49209 | 19777 ft | 292 kts | 39° |
| 2026-04-21 18:08 | 58.60631 | 17.51812 | 19478 ft | 291 kts | 39° |
| 2026-04-21 18:08 | 58.62127 | 17.54408 | 19176 ft | 290 kts | 39° |
| 2026-04-21 18:08 | 58.63621 | 17.57006 | 18882 ft | 289 kts | 39° |
| 2026-04-21 18:08 | 58.65105 | 17.59587 | 18582 ft | 287 kts | 39° |
| 2026-04-21 18:09 | 58.66575 | 17.62149 | 18257 ft | 284 kts | 39° |
| 2026-04-21 18:09 | 58.68030 | 17.64687 | 17934 ft | 280 kts | 39° |
| 2026-04-21 18:09 | 58.69467 | 17.67196 | 17640 ft | 277 kts | 39° |
| 2026-04-21 18:09 | 58.70880 | 17.69666 | 17352 ft | 273 kts | 39° |
| 2026-04-21 18:10 | 58.72282 | 17.72120 | 17074 ft | 274 kts | 39° |
| 2026-04-21 18:10 | 58.73708 | 17.74618 | 16783 ft | 280 kts | 39° |
| 2026-04-21 18:10 | 58.75155 | 17.77157 | 16489 ft | 282 kts | 39° |
| 2026-04-21 18:10 | 58.76603 | 17.79701 | 16200 ft | 282 kts | 39° |
| 2026-04-21 18:11 | 58.78042 | 17.82233 | 15902 ft | 279 kts | 39° |
| 2026-04-21 18:11 | 58.79465 | 17.84737 | 15619 ft | 275 kts | 39° |
| 2026-04-21 18:11 | 58.80869 | 17.87210 | 15338 ft | 272 kts | 38° |
| 2026-04-21 18:11 | 58.82401 | 17.89183 | 15056 ft | 268 kts | 24° |
| 2026-04-21 18:12 | 58.84117 | 17.90778 | 14824 ft | 272 kts | 24° |
| 2026-04-21 18:12 | 58.85820 | 17.92389 | 14596 ft | 273 kts | 24° |
| 2026-04-21 18:12 | 58.87521 | 17.94000 | 14361 ft | 273 kts | 24° |
| 2026-04-21 18:12 | 58.89202 | 17.95592 | 14126 ft | 272 kts | 24° |
| 2026-04-21 18:13 | 58.90897 | 17.97198 | 13868 ft | 271 kts | 24° |
| 2026-04-21 18:13 | 58.92594 | 17.98809 | 13610 ft | 270 kts | 24° |
| 2026-04-21 18:13 | 58.94277 | 18.00408 | 13364 ft | 270 kts | 24° |
| 2026-04-21 18:13 | 58.95959 | 18.02008 | 13127 ft | 269 kts | 24° |
| 2026-04-21 18:14 | 58.99301 | 18.05191 | 12649 ft | 267 kts | 24° |
| 2026-04-21 18:14 | 59.00962 | 18.06776 | 12420 ft | 266 kts | 24° |
| 2026-04-21 18:14 | 59.02620 | 18.08360 | 12187 ft | 265 kts | 24° |
| 2026-04-21 18:15 | 59.04272 | 18.09939 | 11951 ft | 264 kts | 24° |
| 2026-04-21 18:15 | 59.05918 | 18.11515 | 11719 ft | 263 kts | 24° |
| 2026-04-21 18:15 | 59.07551 | 18.13080 | 11484 ft | 262 kts | 24° |
| 2026-04-21 18:15 | 59.09193 | 18.14619 | 11252 ft | 261 kts | 20° |
| 2026-04-21 18:16 | 59.10955 | 18.15243 | 10999 ft | 258 kts | 3° |
| 2026-04-21 18:16 | 59.12747 | 18.15480 | 10802 ft | 258 kts | 4° |
| 2026-04-21 18:16 | 59.14531 | 18.15716 | 10600 ft | 257 kts | 4° |
| 2026-04-21 18:16 | 59.16309 | 18.15941 | 10383 ft | 255 kts | 4° |
| 2026-04-21 18:17 | 59.18078 | 18.16158 | 10166 ft | 253 kts | 4° |
| 2026-04-21 18:17 | 59.19829 | 18.16370 | 9928 ft | 252 kts | 3° |
| 2026-04-21 18:17 | 59.21574 | 18.16579 | 9692 ft | 251 kts | 3° |
| 2026-04-21 18:17 | 59.23306 | 18.16784 | 9466 ft | 249 kts | 3° |
| 2026-04-21 18:18 | 59.25032 | 18.16989 | 9253 ft | 248 kts | 3° |
| 2026-04-21 18:18 | 59.26747 | 18.17192 | 9034 ft | 246 kts | 3° |
| 2026-04-21 18:18 | 59.28451 | 18.17393 | 8818 ft | 245 kts | 3° |
| 2026-04-21 18:18 | 59.30153 | 18.17595 | 8610 ft | 244 kts | 3° |
| 2026-04-21 18:19 | 59.31844 | 18.17794 | 8382 ft | 243 kts | 3° |
| 2026-04-21 18:19 | 59.33535 | 18.17994 | 8181 ft | 243 kts | 3° |
| 2026-04-21 18:19 | 59.35214 | 18.18193 | 7960 ft | 242 kts | 3° |
| 2026-04-21 18:19 | 59.36894 | 18.18392 | 7748 ft | 241 kts | 3° |
| 2026-04-21 18:20 | 59.38561 | 18.18590 | 7537 ft | 240 kts | 3° |
| 2026-04-21 18:20 | 59.40225 | 18.18787 | 7308 ft | 238 kts | 3° |
| 2026-04-21 18:20 | 59.41863 | 18.18982 | 7115 ft | 233 kts | 3° |
| 2026-04-21 18:20 | 59.43466 | 18.19173 | 6908 ft | 228 kts | 3° |
| 2026-04-21 18:21 | 59.45032 | 18.19359 | 6720 ft | 223 kts | 3° |
| 2026-04-21 18:21 | 59.46554 | 18.19541 | 6557 ft | 215 kts | 3° |
| 2026-04-21 18:21 | 59.48026 | 18.19717 | 6368 ft | 209 kts | 3° |
| 2026-04-21 18:21 | 59.49457 | 18.19888 | 6179 ft | 203 kts | 2° |
| 2026-04-21 18:22 | 59.50844 | 18.20026 | 5985 ft | 196 kts | 357° |
| 2026-04-21 18:22 | 59.52105 | 18.19150 | 5689 ft | 198 kts | 324° |
| 2026-04-21 18:22 | 59.52869 | 18.16922 | 5426 ft | 207 kts | 293° |
| 2026-04-21 18:22 | 59.52927 | 18.14049 | 5210 ft | 211 kts | 272° |
| 2026-04-21 18:23 | 59.52774 | 18.11231 | 4977 ft | 204 kts | 273° |
| 2026-04-21 18:23 | 59.52637 | 18.08479 | 4660 ft | 200 kts | 272° |
| 2026-04-21 18:23 | 59.52502 | 18.05724 | 4308 ft | 199 kts | 272° |
| 2026-04-21 18:23 | 59.52372 | 18.03022 | 3973 ft | 194 kts | 272° |
| 2026-04-21 18:24 | 59.52248 | 18.00437 | 3632 ft | 185 kts | 272° |
| 2026-04-21 18:24 | 59.52133 | 17.98015 | 3334 ft | 176 kts | 273° |
| 2026-04-21 18:24 | 59.52018 | 17.95613 | 3066 ft | 172 kts | 272° |
| 2026-04-21 18:24 | 59.51908 | 17.93305 | 2833 ft | 171 kts | 272° |
| 2026-04-21 18:25 | 59.51800 | 17.90964 | 2612 ft | 171 kts | 274° |
| 2026-04-21 18:25 | 59.52077 | 17.88822 | 2360 ft | 155 kts | 312° |
| 2026-04-21 18:25 | 59.52875 | 17.87807 | 2202 ft | 130 kts | 355° |
| 2026-04-21 18:25 | 59.53764 | 17.87832 | 2103 ft | 128 kts | 6° |
| 2026-04-21 18:26 | 59.54644 | 17.88066 | 1972 ft | 127 kts | 8° |
| 2026-04-21 18:26 | 59.55517 | 17.88360 | 1824 ft | 128 kts | 9° |
| 2026-04-21 18:26 | 59.56391 | 17.88672 | 1637 ft | 128 kts | 9° |
| 2026-04-21 18:26 | 59.57274 | 17.88989 | 1481 ft | 129 kts | 9° |
| 2026-04-21 18:27 | 59.58160 | 17.89308 | 1285 ft | 130 kts | 9° |
| 2026-04-21 18:27 | 59.59055 | 17.89631 | 1104 ft | 131 kts | 9° |
| 2026-04-21 18:27 | 59.59950 | 17.89956 | 906 ft | 131 kts | 9° |
| 2026-04-21 18:27 | 59.60861 | 17.90269 | 719 ft | 134 kts | 11° |
| 2026-04-21 18:28 | 59.61785 | 17.90610 | 550 ft | 136 kts | 12° |
| 2026-04-21 18:28 | 59.62717 | 17.90953 | 374 ft | 137 kts | 11° |
| 2026-04-21 18:28 | 59.63647 | 17.91287 | 204 ft | 134 kts | 12° |
| 2026-04-21 18:28 | 59.64464 | 17.91587 | 146 ft | 92 kts | 11° |
| 2026-04-21 18:29 | 59.64908 | 17.91751 | 146 ft | 55 kts | 11° |
| 2026-04-21 18:29 | 59.65155 | 17.91886 | 145 ft | 25 kts | 26° |
| 2026-04-21 18:29 | 59.65290 | 17.92090 | 142 ft | 10 kts | 43° |
| 2026-04-21 18:29 | 59.65295 | 17.92100 | 142 ft | 0 kts | 43° |
| 2026-04-21 18:30 | 59.65344 | 17.93798 | 140 ft | 0 kts | 255° |